createdAt,value
2023-02-07T00:01:35.600Z,59.60
2023-02-07T00:04:03.815Z,61.50
2023-02-07T00:06:35.471Z,63.10
2023-02-07T00:09:05.909Z,63.70
2023-02-07T00:11:34.582Z,64.80
2023-02-07T00:14:03.487Z,61.70
2023-02-07T00:16:31.714Z,59.70
2023-02-07T00:19:01.007Z,59.90
2023-02-07T00:21:30.283Z,60.10
2023-02-07T00:24:00.053Z,62.10
2023-02-07T00:26:29.600Z,61.00
2023-02-07T00:28:58.731Z,58.90
2023-02-07T00:31:29.414Z,61.50
2023-02-07T00:34:00.650Z,59.30
2023-02-07T00:36:31.181Z,61.70
2023-02-07T00:39:05.013Z,65.00
2023-02-07T00:41:33.638Z,68.30
2023-02-07T00:44:01.872Z,71.30
2023-02-07T00:46:30.938Z,72.80
2023-02-07T00:48:59.580Z,74.20
2023-02-07T00:51:27.832Z,75.20
2023-02-07T00:53:56.507Z,74.60
2023-02-07T00:56:28.664Z,74.50
2023-02-07T00:58:59.499Z,72.50
2023-02-07T01:01:28.896Z,71.00
2023-02-07T01:03:57.899Z,64.00
2023-02-07T01:06:26.035Z,58.60
2023-02-07T01:08:58.241Z,56.00
2023-02-07T01:11:28.795Z,54.80
2023-02-07T01:13:56.925Z,55.70
2023-02-07T01:16:28.096Z,55.90
2023-02-07T01:18:56.782Z,55.70
2023-02-07T01:21:27.611Z,53.60
2023-02-07T01:23:57.034Z,53.20
2023-02-07T01:26:27.291Z,53.80
2023-02-07T01:28:56.280Z,52.10
2023-02-07T01:31:25.437Z,52.40
2023-02-07T01:33:57.547Z,51.60
2023-02-07T01:36:27.658Z,51.20
2023-02-07T01:38:56.520Z,51.60
2023-02-07T01:41:27.760Z,52.00
2023-02-07T01:43:58.828Z,51.00
2023-02-07T01:46:27.771Z,50.40
2023-02-07T01:48:59.795Z,51.60
2023-02-07T01:51:30.165Z,51.70
2023-02-07T01:54:04.585Z,46.00
2023-02-07T01:56:36.690Z,47.90
2023-02-07T01:59:06.963Z,45.90
2023-02-07T02:01:36.076Z,47.60
2023-02-07T02:04:04.816Z,43.90
2023-02-07T02:06:34.502Z,46.40
2023-02-07T02:09:09.308Z,42.80
2023-02-07T02:12:00.794Z,40.60
2023-02-07T02:14:52.060Z,48.20
2023-02-07T02:17:29.515Z,43.50
2023-02-07T02:20:50.174Z,40.80
2023-02-07T02:23:30.193Z,42.10
2023-02-07T02:26:40.545Z,39.90
2023-02-07T02:29:33.105Z,41.50
2023-02-07T02:32:39.850Z,41.70
2023-02-07T02:35:15.826Z,42.90
2023-02-07T02:37:49.277Z,44.10
2023-02-07T02:40:22.929Z,41.70
2023-02-07T02:42:57.117Z,40.20
2023-02-07T02:45:29.581Z,43.20
2023-02-07T02:47:59.102Z,44.40
2023-02-07T02:50:30.411Z,44.10
2023-02-07T02:52:59.177Z,43.30
2023-02-07T02:55:48.193Z,42.30
2023-02-07T02:58:27.305Z,43.60
2023-02-07T03:01:06.998Z,43.10
2023-02-07T03:03:49.157Z,42.80
2023-02-07T03:06:29.848Z,45.90
2023-02-07T03:09:05.067Z,43.60
2023-02-07T03:11:41.100Z,42.00
2023-02-07T03:14:17.179Z,44.40
2023-02-07T03:16:51.852Z,46.70
2023-02-07T03:19:26.611Z,46.80
2023-02-07T03:22:00.066Z,47.50
2023-02-07T03:24:32.860Z,44.20
2023-02-07T03:27:05.961Z,46.30
2023-02-07T03:29:38.735Z,46.90
2023-02-07T03:32:09.347Z,46.60
2023-02-07T03:34:44.701Z,47.70
2023-02-07T03:37:17.520Z,48.00
2023-02-07T03:39:45.889Z,48.80
2023-02-07T03:42:21.165Z,48.60
2023-02-07T03:44:51.265Z,47.00
2023-02-07T03:47:20.449Z,45.40
2023-02-07T03:49:48.683Z,46.90
2023-02-07T03:52:18.274Z,45.40
2023-02-07T03:54:46.444Z,45.30
2023-02-07T03:57:14.569Z,44.00
2023-02-07T03:59:42.802Z,46.00
2023-02-07T04:02:11.205Z,47.90
2023-02-07T04:04:39.792Z,45.70
2023-02-07T04:07:08.042Z,44.70
2023-02-07T04:09:37.611Z,41.90
2023-02-07T04:12:06.338Z,43.70
2023-02-07T04:14:34.860Z,42.60
2023-02-07T04:17:03.014Z,44.60
2023-02-07T04:19:31.186Z,43.30
2023-02-07T04:21:59.443Z,42.60
2023-02-07T04:24:31.930Z,45.10
2023-02-07T04:27:01.532Z,46.00
2023-02-07T04:29:29.681Z,44.70
2023-02-07T04:31:59.030Z,43.80
2023-02-07T04:34:27.666Z,45.80
2023-02-07T04:36:55.938Z,46.40
2023-02-07T04:39:24.282Z,46.50
2023-02-07T04:41:52.509Z,46.30
2023-02-07T04:44:22.086Z,46.60
2023-02-07T04:46:50.213Z,45.00
2023-02-07T04:49:18.357Z,46.90
2023-02-07T04:51:46.834Z,48.00
2023-02-07T04:54:14.984Z,46.60
2023-02-07T04:56:43.139Z,46.20
2023-02-07T04:59:11.251Z,45.90
2023-02-07T05:01:40.725Z,45.90
2023-02-07T05:04:08.893Z,44.90
2023-02-07T05:06:37.350Z,46.30
2023-02-07T05:09:05.659Z,44.70
2023-02-07T05:11:33.749Z,47.60
2023-02-07T05:14:02.004Z,49.60
2023-02-07T05:16:30.469Z,50.10
2023-02-07T05:19:00.342Z,50.90
2023-02-07T05:21:28.600Z,48.50
2023-02-07T05:23:56.648Z,49.70
2023-02-07T05:26:24.748Z,48.00
2023-02-07T05:28:53.177Z,49.30
2023-02-07T05:31:21.611Z,51.60
2023-02-07T05:33:48.794Z,50.80
2023-02-07T05:36:18.232Z,47.00
2023-02-07T05:38:46.323Z,49.90
2023-02-07T05:41:14.745Z,51.70
2023-02-07T05:43:43.093Z,51.10
2023-02-07T05:46:11.529Z,52.30
2023-02-07T05:48:39.994Z,53.20
2023-02-07T05:51:08.154Z,52.20
2023-02-07T05:53:37.727Z,50.20
2023-02-07T05:56:06.236Z,49.80
2023-02-07T05:58:34.425Z,50.30
2023-02-07T06:01:02.607Z,49.80
2023-02-07T06:03:30.814Z,50.60
2023-02-07T06:05:58.988Z,50.20
2023-02-07T06:08:27.185Z,49.30
2023-02-07T06:10:57.033Z,48.90
2023-02-07T06:13:26.234Z,48.10
2023-02-07T06:15:54.383Z,49.20
2023-02-07T06:18:22.568Z,48.60
2023-02-07T06:20:51.713Z,48.40
2023-02-07T06:23:23.043Z,49.00
2023-02-07T06:25:51.177Z,49.00
2023-02-07T06:28:20.750Z,49.30
2023-02-07T06:30:49.012Z,49.60
2023-02-07T06:33:17.239Z,50.20
2023-02-07T06:35:47.389Z,50.90
2023-02-07T06:38:16.035Z,50.90
2023-02-07T06:40:44.700Z,51.00
2023-02-07T06:43:14.399Z,50.60
2023-02-07T06:45:43.928Z,51.30
2023-02-07T06:48:12.049Z,51.60
2023-02-07T06:50:40.216Z,51.10
2023-02-07T06:53:08.738Z,51.30
2023-02-07T06:55:39.515Z,51.50
2023-02-07T06:58:08.535Z,52.20
2023-02-07T07:00:36.631Z,52.60
2023-02-07T07:03:06.659Z,54.60
2023-02-07T07:05:34.874Z,54.60
2023-02-07T07:08:03.246Z,54.80
2023-02-07T07:10:31.533Z,53.90
2023-02-07T07:12:59.852Z,52.50
2023-02-07T07:15:28.104Z,54.10
2023-02-07T07:17:56.781Z,53.80
2023-02-07T07:20:26.351Z,53.40
2023-02-07T07:22:54.799Z,53.80
2023-02-07T07:25:23.045Z,54.00
2023-02-07T07:27:51.228Z,54.00
2023-02-07T07:30:19.595Z,53.80
2023-02-07T07:32:47.682Z,53.70
2023-02-07T07:35:17.170Z,54.00
2023-02-07T07:37:48.212Z,53.10
2023-02-07T07:40:16.737Z,54.00
2023-02-07T07:42:45.109Z,54.50
2023-02-07T07:45:31.951Z,54.40
2023-02-07T07:48:00.182Z,54.60
2023-02-07T07:50:28.530Z,56.50
2023-02-07T07:52:58.173Z,59.10
2023-02-07T07:55:26.512Z,60.10
2023-02-07T07:57:54.774Z,63.70
2023-02-07T08:00:22.899Z,68.00
2023-02-07T08:02:51.048Z,66.90
2023-02-07T08:05:19.617Z,66.40
2023-02-07T08:07:47.695Z,67.10
2023-02-07T08:10:18.389Z,66.00
2023-02-07T08:12:46.502Z,64.10
2023-02-07T08:15:14.645Z,63.20
2023-02-07T08:17:42.760Z,63.50
2023-02-07T08:20:12.830Z,60.10
2023-02-07T08:22:41.282Z,60.90
2023-02-07T08:25:10.222Z,62.00
2023-02-07T08:27:40.382Z,63.00
2023-02-07T08:30:11.252Z,62.00
2023-02-07T08:32:40.337Z,62.60
2023-02-07T08:35:10.070Z,63.70
2023-02-07T08:37:39.460Z,63.90
2023-02-07T08:40:08.603Z,64.00
2023-02-07T08:42:36.809Z,64.40
2023-02-07T08:45:07.014Z,63.70
2023-02-07T08:47:35.103Z,64.50
2023-02-07T08:50:03.852Z,63.40
2023-02-07T08:52:32.149Z,63.40
2023-02-07T08:55:00.311Z,62.80
2023-02-07T08:57:28.700Z,62.50
2023-02-07T08:59:57.138Z,62.90
2023-02-07T09:02:27.208Z,63.60
2023-02-07T09:04:55.937Z,63.80
2023-02-07T09:07:24.349Z,61.80
2023-02-07T09:09:52.977Z,62.60
2023-02-07T09:12:21.225Z,62.90
2023-02-07T09:14:49.714Z,62.90
2023-02-07T09:17:18.157Z,61.90
2023-02-07T09:19:47.638Z,62.40
2023-02-07T09:22:15.821Z,62.10
2023-02-07T09:24:43.972Z,62.90
2023-02-07T09:27:12.524Z,62.40
2023-02-07T09:29:40.877Z,61.70
2023-02-07T09:32:09.057Z,61.00
2023-02-07T09:34:37.293Z,62.40
2023-02-07T09:37:06.827Z,63.30
2023-02-07T09:39:38.285Z,62.90
2023-02-07T09:42:17.162Z,62.00
2023-02-07T09:44:55.827Z,63.20
2023-02-07T09:47:25.355Z,62.50
2023-02-07T09:49:58.397Z,62.10
2023-02-07T09:52:37.438Z,62.10
2023-02-07T09:55:06.709Z,61.00
2023-02-07T09:57:41.882Z,62.50
2023-02-07T10:00:22.847Z,62.40
2023-02-07T10:02:55.151Z,61.90
2023-02-07T10:05:29.349Z,63.50
2023-02-07T10:07:58.985Z,61.60
2023-02-07T10:10:37.442Z,60.60
2023-02-07T10:13:21.073Z,59.20
2023-02-07T10:15:59.080Z,58.40
2023-02-07T10:18:41.821Z,58.40
2023-02-07T10:21:19.818Z,57.50
2023-02-07T10:24:18.811Z,58.70
2023-02-07T10:26:50.658Z,58.40
2023-02-07T10:29:45.451Z,57.90
2023-02-07T10:32:16.385Z,58.60
2023-02-07T10:34:48.372Z,57.80
2023-02-07T10:37:21.699Z,59.60
2023-02-07T10:39:58.085Z,56.10
2023-02-07T10:42:27.452Z,54.70
2023-02-07T10:44:55.568Z,53.60
2023-02-07T10:47:25.357Z,54.00
2023-02-07T10:49:55.643Z,54.40
2023-02-07T10:52:29.636Z,53.50
2023-02-07T10:55:00.746Z,54.50
2023-02-07T10:57:30.379Z,54.90
2023-02-07T11:00:23.242Z,53.20
2023-02-07T11:02:52.259Z,53.60
2023-02-07T11:05:41.357Z,54.20
2023-02-07T11:08:25.410Z,51.20
2023-02-07T11:10:56.855Z,50.00
2023-02-07T11:13:28.862Z,50.10
2023-02-07T11:16:01.001Z,50.70
2023-02-07T11:18:43.517Z,49.00
2023-02-07T11:21:26.214Z,50.50
2023-02-07T11:23:56.892Z,47.80
2023-02-07T11:26:26.708Z,49.60
2023-02-07T11:29:02.999Z,51.40
2023-02-07T11:31:35.748Z,49.30
2023-02-07T11:34:20.630Z,48.00
2023-02-07T11:36:48.800Z,48.40
2023-02-07T11:39:21.190Z,50.00
2023-02-07T11:41:59.738Z,51.40
2023-02-07T11:44:30.704Z,52.50
2023-02-07T11:47:04.100Z,50.50
2023-02-07T11:49:42.740Z,51.50
2023-02-07T11:52:11.652Z,51.00
2023-02-07T11:54:42.369Z,51.10
2023-02-07T11:57:15.369Z,48.50
2023-02-07T11:59:49.254Z,50.50
2023-02-07T12:02:21.104Z,48.20
2023-02-07T12:04:50.561Z,49.70
2023-02-07T12:07:25.482Z,49.20
2023-02-07T12:09:57.442Z,49.80
2023-02-07T12:12:35.098Z,53.40
2023-02-07T12:15:08.272Z,50.50
2023-02-07T12:17:45.978Z,49.30
2023-02-07T12:20:23.521Z,49.60
2023-02-07T12:23:11.632Z,47.50
2023-02-07T12:25:51.957Z,47.80
2023-02-07T12:28:28.396Z,45.10
2023-02-07T12:31:00.912Z,45.60
2023-02-07T12:33:38.215Z,46.10
2023-02-07T12:36:13.787Z,45.20
2023-02-07T12:38:48.256Z,46.90
2023-02-07T12:41:24.330Z,48.20
2023-02-07T12:44:06.445Z,48.40
2023-02-07T12:46:43.013Z,47.20
2023-02-07T12:49:28.564Z,47.90
2023-02-07T12:52:07.298Z,47.40
2023-02-07T12:54:41.861Z,49.20
2023-02-07T12:57:16.766Z,46.80
2023-02-07T12:59:55.211Z,47.80
2023-02-07T13:02:34.561Z,48.70
2023-02-07T13:05:29.818Z,48.50
2023-02-07T13:08:07.569Z,46.50
2023-02-07T13:10:49.259Z,49.50
2023-02-07T13:13:23.559Z,47.10
2023-02-07T13:15:59.231Z,47.40
2023-02-07T13:18:37.552Z,49.80
2023-02-07T13:21:18.789Z,50.00
2023-02-07T13:23:49.740Z,48.30
2023-02-07T13:26:21.330Z,46.30
2023-02-07T13:28:53.097Z,47.00
2023-02-07T13:31:26.668Z,46.60
2023-02-07T13:33:55.295Z,47.40
2023-02-07T13:36:32.301Z,48.00
2023-02-07T13:39:15.168Z,47.50
2023-02-07T13:41:53.738Z,45.70
2023-02-07T13:44:27.955Z,47.00
2023-02-07T13:47:17.846Z,47.80
2023-02-07T13:49:51.546Z,46.60
2023-02-07T13:52:27.634Z,48.80
2023-02-07T13:55:03.574Z,46.40
2023-02-07T13:58:00.914Z,45.80
2023-02-07T14:00:31.547Z,46.50
2023-02-07T14:03:03.527Z,46.90
2023-02-07T14:05:34.390Z,45.80
2023-02-07T14:08:04.912Z,45.10
2023-02-07T14:10:45.947Z,45.30
2023-02-07T14:13:32.977Z,45.10
2023-02-07T14:16:08.513Z,44.60
2023-02-07T14:18:46.809Z,45.00
2023-02-07T14:21:33.128Z,45.40
2023-02-07T14:24:18.687Z,45.50
2023-02-07T14:27:05.102Z,48.00
2023-02-07T14:29:54.854Z,45.90
2023-02-07T14:33:05.295Z,47.40
2023-02-07T14:35:37.695Z,45.80
2023-02-07T14:38:23.492Z,47.10
2023-02-07T14:41:10.126Z,45.10
2023-02-07T14:44:09.481Z,47.90
2023-02-07T14:46:41.138Z,45.80
2023-02-07T14:49:16.160Z,45.90
2023-02-07T14:51:48.181Z,45.60
2023-02-07T14:54:20.909Z,47.00
2023-02-07T14:56:54.585Z,45.80
2023-02-07T14:59:29.258Z,47.10
2023-02-07T15:01:57.484Z,47.70
2023-02-07T15:04:25.632Z,46.40
2023-02-07T15:06:55.237Z,47.60
2023-02-07T15:09:27.073Z,47.00
2023-02-07T15:12:08.758Z,47.20
2023-02-07T15:14:41.662Z,47.00
2023-02-07T15:17:10.005Z,47.50
2023-02-07T15:19:40.819Z,47.50
2023-02-07T15:22:24.126Z,47.50
2023-02-07T15:24:56.726Z,47.90
2023-02-07T15:27:26.748Z,48.80
2023-02-07T15:29:57.147Z,45.90
2023-02-07T15:32:30.100Z,46.00
2023-02-07T15:34:58.861Z,48.10
2023-02-07T15:37:28.393Z,47.50
2023-02-07T15:39:58.511Z,47.10
2023-02-07T15:42:26.686Z,47.40
2023-02-07T15:44:57.028Z,46.80
2023-02-07T15:47:37.521Z,47.70
2023-02-07T15:50:09.060Z,47.70
2023-02-07T15:52:43.600Z,47.40
2023-02-07T15:55:19.001Z,47.40
2023-02-07T15:57:47.380Z,49.30
2023-02-07T16:00:19.858Z,48.60
2023-02-07T16:02:57.739Z,52.40
2023-02-07T16:05:29.380Z,48.10
2023-02-07T16:07:59.759Z,48.50
2023-02-07T16:10:38.492Z,48.00
2023-02-07T16:13:19.057Z,49.00
2023-02-07T16:15:56.241Z,48.90
2023-02-07T16:18:39.356Z,48.50
2023-02-07T16:21:17.014Z,49.60
2023-02-07T16:23:48.033Z,48.70
2023-02-07T16:26:18.122Z,48.60
2023-02-07T16:28:46.942Z,48.60
2023-02-07T16:31:15.215Z,48.10
2023-02-07T16:33:43.392Z,48.00
2023-02-07T16:36:16.038Z,47.60
2023-02-07T16:38:44.513Z,46.60
2023-02-07T16:41:26.026Z,46.50
2023-02-07T16:43:55.354Z,45.70
2023-02-07T16:46:23.588Z,45.60
2023-02-07T16:48:51.949Z,46.10
2023-02-07T16:51:20.140Z,45.60
2023-02-07T16:53:48.288Z,47.10
2023-02-07T16:56:24.834Z,45.30
2023-02-07T16:58:53.350Z,45.90
2023-02-07T17:01:23.044Z,46.40
2023-02-07T17:03:51.270Z,46.60
2023-02-07T17:06:21.158Z,46.20
2023-02-07T17:08:50.998Z,46.60
2023-02-07T17:11:25.270Z,47.00
2023-02-07T17:13:54.014Z,46.60
2023-02-07T17:16:22.765Z,47.20
2023-02-07T17:18:51.160Z,47.20
2023-02-07T17:21:22.015Z,47.70
2023-02-07T17:23:50.784Z,47.60
2023-02-07T17:26:24.559Z,47.10
2023-02-07T17:28:52.920Z,47.40
2023-02-07T17:31:21.892Z,46.70
2023-02-07T17:33:51.565Z,45.90
2023-02-07T17:36:19.914Z,47.10
2023-02-07T17:38:48.182Z,46.10
2023-02-07T17:41:17.775Z,45.80
2023-02-07T17:43:47.707Z,46.10
2023-02-07T17:46:19.148Z,46.20
2023-02-07T17:48:49.130Z,46.50
2023-02-07T17:51:18.261Z,46.70
2023-02-07T17:53:47.157Z,46.90
2023-02-07T17:56:21.761Z,48.40
2023-02-07T17:58:51.324Z,48.90
2023-02-07T18:01:20.244Z,48.30
2023-02-07T18:03:49.341Z,47.80
2023-02-07T18:06:19.149Z,47.90
2023-02-07T18:08:48.249Z,48.10
2023-02-07T18:11:16.654Z,48.00
2023-02-07T18:13:46.726Z,47.60
2023-02-07T18:16:18.202Z,48.50
2023-02-07T18:18:46.389Z,50.00
2023-02-07T18:21:14.541Z,50.80
2023-02-07T18:23:43.384Z,51.00
2023-02-07T18:26:12.477Z,50.90
2023-02-07T18:28:40.942Z,49.70
2023-02-07T18:31:13.650Z,49.70
2023-02-07T18:33:43.346Z,49.20
2023-02-07T18:36:12.440Z,48.60
2023-02-07T18:38:40.966Z,48.70
2023-02-07T18:41:10.429Z,49.90
2023-02-07T18:43:39.360Z,51.60
2023-02-07T18:46:11.286Z,52.20
2023-02-07T18:48:40.101Z,51.90
2023-02-07T18:51:11.899Z,54.10
2023-02-07T18:53:40.989Z,52.20
2023-02-07T18:56:12.879Z,53.30
2023-02-07T18:58:41.129Z,53.10
2023-02-07T19:01:13.154Z,51.90
2023-02-07T19:03:41.333Z,53.00
2023-02-07T19:06:10.902Z,53.30
2023-02-07T19:08:40.603Z,52.80
2023-02-07T19:11:09.699Z,53.90
2023-02-07T19:13:38.233Z,51.90
2023-02-07T19:16:07.590Z,55.00
2023-02-07T19:18:36.240Z,62.00
2023-02-07T19:21:05.803Z,61.30
2023-02-07T19:23:36.125Z,57.20
2023-02-07T19:26:05.397Z,54.50
2023-02-07T19:28:34.670Z,54.10
2023-02-07T19:31:04.446Z,54.40
2023-02-07T19:33:32.834Z,52.90
2023-02-07T19:36:06.188Z,52.40
2023-02-07T19:38:36.245Z,51.70
2023-02-07T19:41:05.064Z,50.70
2023-02-07T19:43:33.519Z,51.40
2023-02-07T19:46:01.837Z,50.00
2023-02-07T19:48:30.438Z,49.10
2023-02-07T19:51:00.134Z,49.20
2023-02-07T19:53:29.456Z,49.60
2023-02-07T19:56:03.508Z,48.80
2023-02-07T19:58:32.677Z,49.00
2023-02-07T20:01:01.372Z,49.70
2023-02-07T20:03:30.123Z,49.60
2023-02-07T20:06:01.043Z,48.20
2023-02-07T20:08:33.776Z,48.50
2023-02-07T20:11:06.958Z,49.90
2023-02-07T20:13:35.727Z,49.60
2023-02-07T20:16:05.731Z,50.40
2023-02-07T20:18:34.513Z,53.60
2023-02-07T20:21:11.472Z,53.80
2023-02-07T20:23:41.675Z,52.40
2023-02-07T20:26:13.621Z,52.20
2023-02-07T20:28:42.325Z,50.60
2023-02-07T20:31:12.790Z,50.00
2023-02-07T20:33:42.163Z,49.50
2023-02-07T20:36:11.784Z,48.90
2023-02-07T20:38:40.473Z,48.80
2023-02-07T20:41:11.630Z,48.80
2023-02-07T20:43:40.230Z,49.80
2023-02-07T20:46:11.028Z,49.60
2023-02-07T20:48:39.330Z,50.10
2023-02-07T20:51:10.325Z,49.50
2023-02-07T20:53:39.642Z,49.70
2023-02-07T20:56:11.532Z,51.80
2023-02-07T20:58:40.512Z,50.60
2023-02-07T21:01:10.954Z,49.60
2023-02-07T21:03:39.854Z,49.10
2023-02-07T21:06:09.188Z,50.30
2023-02-07T21:08:38.164Z,51.00
2023-02-07T21:11:07.981Z,54.50
2023-02-07T21:13:38.470Z,53.10
2023-02-07T21:16:08.776Z,52.60
2023-02-07T21:18:37.605Z,51.90
2023-02-07T21:21:09.896Z,51.00
2023-02-07T21:23:38.672Z,51.00
2023-02-07T21:26:08.110Z,50.50
2023-02-07T21:28:38.232Z,49.40
2023-02-07T21:31:07.692Z,51.00
2023-02-07T21:33:35.932Z,51.70
2023-02-07T21:36:06.226Z,54.60
2023-02-07T21:38:34.973Z,53.30
2023-02-07T21:41:03.706Z,50.50
2023-02-07T21:43:31.877Z,48.80
2023-02-07T21:46:06.401Z,47.90
2023-02-07T21:48:35.804Z,47.00
2023-02-07T21:51:05.702Z,46.70
2023-02-07T21:53:34.331Z,45.80
2023-02-07T21:56:02.862Z,45.90
2023-02-07T21:58:31.365Z,44.80
2023-02-07T22:01:08.076Z,44.60
2023-02-07T22:03:37.154Z,44.70
2023-02-07T22:06:06.242Z,44.50
2023-02-07T22:08:34.983Z,44.10
2023-02-07T22:11:04.812Z,44.20
2023-02-07T22:13:33.393Z,44.10
2023-02-07T22:16:01.912Z,44.40
2023-02-07T22:18:31.642Z,43.90
2023-02-07T22:21:04.133Z,44.00
2023-02-07T22:23:32.479Z,43.50
2023-02-07T22:26:00.669Z,43.70
2023-02-07T22:28:29.209Z,43.60
2023-02-07T22:30:57.567Z,42.90
2023-02-07T22:33:26.495Z,43.30
2023-02-07T22:35:56.014Z,43.60
2023-02-07T22:38:24.104Z,43.00
2023-02-07T22:40:52.377Z,43.10
2023-02-07T22:43:20.580Z,42.50
2023-02-07T22:45:48.762Z,41.60
2023-02-07T22:48:17.926Z,42.50
2023-02-07T22:50:46.144Z,41.30
2023-02-07T22:53:15.745Z,40.50
2023-02-07T22:55:43.921Z,40.50
2023-02-07T22:58:15.581Z,41.50
2023-02-07T23:00:44.214Z,41.90
2023-02-07T23:03:12.313Z,41.40
2023-02-07T23:05:40.880Z,40.80
2023-02-07T23:08:09.068Z,40.10
2023-02-07T23:10:40.961Z,40.70
2023-02-07T23:13:09.233Z,40.60
2023-02-07T23:15:37.638Z,39.70
2023-02-07T23:18:06.365Z,40.10
2023-02-07T23:20:34.659Z,40.50
2023-02-07T23:23:02.805Z,39.40
2023-02-07T23:25:31.018Z,39.00
2023-02-07T23:28:00.869Z,38.60
2023-02-07T23:30:29.023Z,39.50
2023-02-07T23:32:57.438Z,39.90
2023-02-07T23:35:25.761Z,40.00
2023-02-07T23:37:53.833Z,38.80
2023-02-07T23:40:22.017Z,39.70
2023-02-07T23:42:50.125Z,38.20
2023-02-07T23:45:19.773Z,39.10
2023-02-07T23:47:47.872Z,43.10
2023-02-07T23:50:16.175Z,42.80
2023-02-07T23:52:44.342Z,39.20
2023-02-07T23:55:12.728Z,41.40
2023-02-07T23:57:40.929Z,42.50
